CAS5 weather

Aerosmith Heli Service Heliport
Qualicum Beach, British Columbia, Canada

Public forecast

Using degrees Celsius for public forecast. Weather courtesy of forecast.io.

Closest aviation weather report (METAR) to Aerosmith Heli Service Heliport

Closest report is Nanaimo Airport, 26.2 nm (48.5 km) SE. Retrieved 2020/06/02 14:00 UTC (11 minutes ago):

CYCD 021400Z 30003KT 290V030 30SM BKN085 11/08 A3015 RMK AC7 SLP212

Closest aviation forecast (TAF) to Aerosmith Heli Service Heliport

Forecast is more than 12 hours old.

Closest forecast is Nanaimo Airport, 26.2 nm (48.5 km) SE. Retrieved 2020-06-02 00:00 UTC (14 hours ago):

TAF CYCD 012338Z 0200/0204 16007KT P6SM SCT040 TEMPO 0200/0204 BKN040 BECMG 0202/0204 VRB03KT RMK NXT FCST WILL BE ISSUED AT 021445Z